CW6111 Weather Reports


time (UTC)temp
C
wind
direction
speed
KPH
gust
KPH
rain 1hr
cm
rain 24hr
cm
rain mn
cm
humidity
%
barometer
mb
20200229100105 4 344 3.2 6.4 0.00 0.00 0.00 76 1019.3
20200229094634 5 336 3.2 6.4 0.00 0.00 0.00 74 1019.5
20200229093144 5 336 1.6 6.4 0.00 0.00 0.00 73 1019.5
20200229091621 5 17 3.2 12.9 0.00 0.00 0.00 73 1019.6
20200229090055 5 346 9.7 16.1 0.00 0.00 0.00 72 1019.8
20200229084534 5 340 6.4 12.9 0.00 0.00 0.00 71 1019.7
20200229083049 5 5 3.2 6.4 0.00 0.00 0.00 70 1019.9
20200229081549 6 360 3.2 9.7 0.00 0.00 0.00 70 1020.0
20200229080046 6 5 6.4 9.7 0.00 0.00 0.00 70 1020.0
20200229074526 6 5 6.4 9.7 0.00 0.00 0.00 68 1020.3
20200229073108 6 360 6.4 14.5 0.00 0.00 0.00 68 1020.5
20200229071532 7 339 4.8 9.7 0.00 0.00 0.00 67 1020.7
20200229070013 7 355 4.8 12.9 0.00 0.00 0.00 67 1020.7
20200229064533 7 340 4.8 14.5 0.00 0.00 0.00 66 1020.8
20200229063011 7 337 4.8 9.7 0.00 0.00 0.00 65 1020.7
20200229061520 8 5 4.8 12.9 0.00 0.00 0.00 63 1021.0
20200229060211 8 5 8.0 14.5 0.00 0.00 0.00 61 1021.1
20200229054649 8 350 9.7 17.7 0.00 0.00 0.00 60 1021.2
20200229053153 8 360 9.7 19.3 0.00 0.00 0.00 59 1021.1
20200229051738 9 333 9.7 17.7 0.00 0.00 0.00 58 1020.9
20200229050204 9 355 9.7 17.7 0.00 0.00 0.00 58 1020.8
20200229044733 10 5 8.0 14.5 0.00 0.00 0.00 57 1020.7
20200229043152 10 355 8.0 16.1 0.00 0.00 0.00 55 1020.6
20200229041649 10 5 11.3 17.7 0.00 0.00 0.00 55 1020.4
20200229040112 10 344 12.9 19.3 0.00 0.00 0.00 54 1020.2
20200229034558 11 342 8.0 17.7 0.00 0.00 0.00 53 1020.0
20200229031630 11 12 9.7 17.7 0.00 0.00 0.00 52 1019.2
20200229030057 12 319 9.7 17.7 0.00 0.00 0.00 51 1018.9
20200229024653 12 331 11.3 17.7 0.00 0.00 0.00 50 1018.5
20200229023107 13 5 3.2 14.5 0.00 0.00 0.00 48 1018.0
20200229021651 14 346 4.8 11.3 0.00 0.00 0.00 46 1017.7
20200229020100 15 16 3.2 9.7 0.00 0.00 0.00 44 1017.4
20200229014552 16 346 3.2 19.3 0.00 0.00 0.00 43 1017.0
20200229013050 16 21 6.4 16.1 0.00 0.00 0.00 42 1016.7
20200229011541 16 19 3.2 12.9 0.00 0.00 0.00 41 1016.3
20200229010040 17 42 6.4 20.9 0.00 0.00 0.00 39 1016.0
20200229004611 18 61 12.9 24.1 0.00 0.00 0.00 37 1015.8
20200229003040 19 71 17.7 29.0 0.00 0.00 0.00 36 1015.7
20200229001540 21 38 11.3 24.1 0.00 0.00 0.00 33 1015.3
20200229000111 21 33 17.7 27.4 0.00 0.00 0.00 32 1015.0
20200228234556 22 57 14.5 27.4 0.00 0.00 0.00 31 1014.8
20200228233114 23 49 11.3 22.5 0.00 0.00 0.00 30 1014.6
20200228231550 24 355 14.5 29.0 0.00 0.00 0.00 28 1014.5
20200228230041 25 19 14.5 22.5 0.00 0.00 0.00 27 1014.5
20200228224622 25 46 8.0 25.7 0.00 0.00 0.00 28 1014.3
20200228223106 26 327 6.4 20.9 0.00 0.00 0.00 27 1014.3
20200228221558 26 316 6.4 16.1 0.00 0.00 0.00 26 1014.3
20200228220027 26 15 9.7 20.9 0.00 0.00 0.00 26 1014.5
20200228214538 26 278 3.2 17.7 0.00 0.00 0.00 27 1014.7
20200228213112 25 168 4.8 16.1 0.00 0.00 0.00 28 1014.7
20200228211558 25 348 1.6 20.9 0.00 0.00 0.00 28 1014.8
20200228210048 25 344 1.6 17.7 0.00 0.00 0.00 29 1014.9
20200228204519 25 88 4.8 16.1 0.00 0.00 0.00 29 1015.4
20200228203036 24 215 3.2 12.9 0.00 0.00 0.00 31 1015.6
20200228201508 25 27 6.4 17.7 0.00 0.00 0.00 30 1016.0
20200228200023 25 233 6.4 19.3 0.00 0.00 0.00 30 1016.5
20200228194505 24 309 9.7 16.1 0.00 0.00 0.00 31 1016.7
20200228193116 23 127 4.8 16.1 0.00 0.00 0.00 32 1017.1
20200228191800 23 232 8.0 22.5 0.00 0.00 0.00 33 1017.4
20200228190127 23 355 1.6 16.1 0.00 0.00 0.00 32 1017.8
20200228184625 22 306 11.3 22.5 0.00 0.00 0.00 34 1018.3
20200228183146 22 296 4.8 14.5 0.00 0.00 0.00 35 1018.8
20200228181623 21 330 11.3 16.1 0.00 0.00 0.00 36 1019.2
20200228180046 21 280 8.0 20.9 0.00 0.00 0.00 37 1019.7
20200228174657 20 321 6.4 19.3 0.00 0.00 0.00 39 1020.1
20200228173152 19 336 11.3 17.7 0.00 0.00 0.00 41 1020.5
20200228171549 18 280 6.4 14.5 0.00 0.00 0.00 42 1020.8
20200228170037 17 297 4.8 12.9 0.00 0.00 0.00 44 1021.2
20200228164613 16 291 4.8 16.1 0.00 0.00 0.00 45 1021.5
20200228163031 15 344 4.8 12.9 0.00 0.00 0.00 47 1021.7
20200228161543 14 344 3.2 14.5 0.00 0.00 0.00 50 1021.9
20200228160021 13 360 3.2 16.1 0.00 0.00 0.00 53 1022.1
20200228154543 12 292 3.2 9.7 0.00 0.00 0.00 55 1022.1
20200228153211 11 355 3.2 12.9 0.00 0.00 0.00 55 1022.2
20200228151630 10 14 4.8 9.7 0.00 0.00 0.00 57 1022.1
20200228150241 8 42 4.8 9.7 0.00 0.00 0.00 61 1021.9
20200228144626 7 342 1.6 6.4 0.00 0.00 0.00 66 1021.8
20200228143142 6 331 1.6 6.4 0.00 0.00 0.00 71 1021.7
20200228140137 3 323 1.6 6.4 0.00 0.00 0.00 79 1021.7
20200228134605 2 45 0.0 0.0 0.00 0.00 0.00 81 1021.4
20200228133103 2 45 0.0 0.0 0.00 0.00 0.00 82 1021.3
20200228131615 1 45 0.0 0.0 0.00 0.00 0.00 81 1021.1
20200228130044 2 45 0.0 0.0 0.00 0.00 0.00 79 1020.9
20200228124538 2 45 0.0 0.0 0.00 0.00 0.00 77 1020.5
20200228123044 3 45 0.0 0.0 0.00 0.00 0.00 75 1020.4
20200228121617 3 45 0.0 0.0 0.00 0.00 0.00 75 1020.4
20200228120039 4 45 0.0 4.8 0.00 0.00 0.00 75 1020.1
20200228114532 4 54 4.8 8.0 0.00 0.00 0.00 75 1020.1
20200228113034 4 49 4.8 8.0 0.00 0.00 0.00 75 1020.0
20200228111525 4 58 4.8 8.0 0.00 0.00 0.00 76 1020.0
20200228110040 3 29 1.6 6.4 0.00 0.00 0.00 77 1019.9
20200228104526 3 341 1.6 3.2 0.00 0.00 0.00 77 1019.9
20200228103042 3 341 0.0 4.8 0.00 0.00 0.00 77 1019.9
20200228101524 3 341 0.0 3.2 0.00 0.00 0.00 76 1019.8